This is the latest recevied weather packets stored in our database for station/object N2XP-2. If no packets are shown the sender has not sent any weather packets the latest 10 day(s).
| Time | Temp. | Humidity | Pressure | Rain* | Wind** | Luminosity | Snow |
|---|---|---|---|---|---|---|---|
| 1788143170 | 77° F | 89% | 764.6 mmHg | 0 in | 2 mph, 205° | - | - |
| 1788142774 | 77° F | 88% | 764.7 mmHg | 0 in | 2 mph, 291° | - | - |
| 1788142460 | 77° F | 88% | 764.8 mmHg | 0 in | 0 mph | - | - |
| 1788141780 | 77° F | 88% | 764.9 mmHg | 0 in | 1 mph, 207° | - | - |
| 1788141061 | 78° F | 86% | 764.8 mmHg | 0 in | 0 mph | - | - |
| 1788141054 | 78° F | 86% | 764.8 mmHg | 0 in | 1 mph, 208° | - | - |
| 1788141008 | 77° F | 87% | 764.9 mmHg | 0 in | 1 mph, 193° | - | - |
| 1788140697 | 77° F | 87% | 764.9 mmHg | 0 in | 2 mph, 176° | - | - |
| 1788140315 | 78° F | 86% | 764.8 mmHg | 0 in | 1 mph, 294° | - | - |
| 1788139926 | 78° F | 86% | 764.8 mmHg | 0 in | 0 mph | - | - |
| 1788139616 | 78° F | 86% | 764.8 mmHg | 0 in | 1 mph, 208° | - | - |
| 1788139132 | 78° F | 84% | 764.8 mmHg | 0 in | 2 mph, 198° | - | - |
| 1788139123 | 78° F | 84% | 764.8 mmHg | 0 in | 1 mph, 232° | - | - |
| 1788138497 | 78° F | 85% | 764.8 mmHg | 0 in | 1 mph, 315° | - | - |
| 1788138017 | 78° F | 85% | 764.8 mmHg | 0 in | 2 mph, 203° | - | - |
| 1788137694 | 78° F | 84% | 764.8 mmHg | 0 in | 2 mph, 198° | - | - |
| 1788137260 | 78° F | 84% | 764.8 mmHg | 0 in | 1 mph, 232° | - | - |
| 1788136957 | 78° F | 84% | 764.8 mmHg | 0 in | 1 mph, 184° | - | - |
| 1788136405 | 78° F | 83% | 764.5 mmHg | 0 in | 4 mph, 201° | - | - |
| 1788136057 | 79° F | 83% | 764.5 mmHg | 0 in | 3 mph, 193° | - | - |
| 1788135673 | 79° F | 82% | 764.5 mmHg | 0 in | 3 mph, 187° | - | - |
| 1788135278 | 79° F | 82% | 764.5 mmHg | 0 in | 1 mph, 187° | - | - |
| 1788133715 | 80° F | 80% | 764.5 mmHg | 0 in | 3 mph, 269° | - | - |
| 1788133374 | 80° F | 77% | 764.2 mmHg | 0 in | 1 mph, 190° | - | - |
| 1788133265 | 80° F | 79% | 764.5 mmHg | 0 in | 1 mph, 166° | - | - |
* Rain latest hour (hover to see other rain measurements)
** Current wind speed in m/s (hover to see current wind gust speed)